Airfield :







YOU CAN JOIN US ON...

 
LOGIN :

Register | Disclaimer

   EN    FR    IT 

 









Legend :    VFR   Marginal VFR   IFR   Intensive IFR   Very Intensive IFR
Visi :
Ceiling :
>= 8 km
>= 3000ft
5 to 8 km
1000 to 3000 ft
1500m to 5 km
500 to 1000 ft
800 to 1500m
200 to 500 ft
< 800m
< 200 ft
Symbols :   Thunderstorms  Fog  Heavy snow  Heavy precipitations  Wind > 20 kt






- Airport Elevation : 36 ft
- IATA code : PTP


TFFR - Le Raizet

CURRENT METAR :
  • 200230Z AUTO 00000KT CAVOK 22/21 Q1019 NOSIG

EXPIRED METARs :
  • 200200Z AUTO VRB02KT 9999 FEW052 23/21 Q1019 TEMPO 4000 SHRA BKN020TCU
  • 200130Z AUTO 10003KT 070V140 9999 FEW037 BKN046 BKN068 23/21 Q1019 TEMPO 4000 SHRA BKN020TCU
  • 200100Z AUTO 10006KT CAVOK 23/21 Q1018 TEMPO 4000 SHRA BKN020TCU
  • 200030Z AUTO 10006KT 9999 FEW023 SCT054 BKN066 23/21 Q1018 TEMPO 4000 SHRA BKN020TCU
  • 200000Z AUTO 00000KT 9999 FEW058 24/21 Q1018

TAF TAF TFFR
Valid from the 20 at 00:00 until the 21 at 00:00 UTC


192300Z 2000/2024 09010KT 9999 SCT025 SCT040
TEMPO 2000/2011 VRB02KT
PROB40
TEMPO 2000/2003 4000 SHRA BKN020TCU
PROB40
TEMPO 2018/2024 4000 SHRA SCT025TCU
TTZP FIR / North America



MET'MAP, your aeronautical weather chart ! - Copyright ORBIFLY December 2007 - Disclaimer

ORBIFLY MET'MAP TEAM :

Programming & Development : Alexandra Zaïnal
Concept & original design : Baudouin d'Aumeries
Assistance for programming : Marc-Olivier Méhu
Technical & hardware support : Manuel Goepfert

Contact : metmap@orbifly.com




SOURCES & CREDITS :

   NOAA